createdAt,value
2022-10-03T00:01:20.984Z,12.80
2022-10-03T00:04:04.056Z,12.90
2022-10-03T00:06:53.518Z,12.90
2022-10-03T00:09:45.871Z,12.90
2022-10-03T00:12:46.031Z,12.80
2022-10-03T00:15:33.606Z,12.80
2022-10-03T00:18:31.749Z,12.70
2022-10-03T00:21:09.457Z,12.70
2022-10-03T00:23:45.567Z,12.70
2022-10-03T00:26:40.940Z,12.70
2022-10-03T00:29:31.729Z,12.70
2022-10-03T00:32:27.399Z,12.70
2022-10-03T00:35:02.007Z,12.70
2022-10-03T00:37:33.626Z,12.70
2022-10-03T00:40:17.673Z,12.60
2022-10-03T00:43:05.846Z,12.60
2022-10-03T00:45:54.470Z,12.60
2022-10-03T00:48:37.973Z,12.60
2022-10-03T00:51:44.631Z,12.50
2022-10-03T00:54:40.617Z,12.50
2022-10-03T00:57:31.730Z,12.60
2022-10-03T01:00:27.614Z,12.50
2022-10-03T01:03:02.014Z,12.50
2022-10-03T01:05:59.001Z,12.50
2022-10-03T01:09:06.787Z,12.40
2022-10-03T01:11:47.308Z,12.40
2022-10-03T01:14:31.148Z,12.40
2022-10-03T01:17:10.434Z,12.40
2022-10-03T01:19:43.560Z,12.30
2022-10-03T01:22:38.432Z,12.40
2022-10-03T01:25:19.593Z,12.30
2022-10-03T01:28:18.116Z,12.30
2022-10-03T01:30:55.627Z,12.30
2022-10-03T01:33:37.623Z,12.30
2022-10-03T01:36:15.912Z,12.30
2022-10-03T01:38:56.636Z,12.30
2022-10-03T01:41:40.350Z,12.30
2022-10-03T01:47:22.747Z,12.30
2022-10-03T01:50:09.028Z,12.30
2022-10-03T01:52:40.729Z,12.30
2022-10-03T01:55:33.148Z,12.30
2022-10-03T01:58:31.983Z,12.30
2022-10-03T02:01:03.714Z,12.30
2022-10-03T02:03:56.084Z,12.30
2022-10-03T02:06:47.241Z,12.30
2022-10-03T02:09:38.536Z,12.30
2022-10-03T02:12:10.505Z,12.30
2022-10-03T02:14:50.937Z,12.30
2022-10-03T02:17:27.135Z,12.30
2022-10-03T02:20:04.288Z,12.30
2022-10-03T02:22:38.856Z,12.30
2022-10-03T02:25:27.162Z,12.30
2022-10-03T02:28:01.654Z,12.20
2022-10-03T02:30:49.619Z,12.30
2022-10-03T02:33:45.430Z,12.30
2022-10-03T02:36:34.982Z,12.30
2022-10-03T02:39:40.879Z,12.30
2022-10-03T02:42:37.060Z,12.30
2022-10-03T02:45:23.482Z,12.30
2022-10-03T02:48:30.631Z,12.30
2022-10-03T02:50:59.433Z,12.30
2022-10-03T02:53:36.694Z,12.30
2022-10-03T02:56:11.116Z,12.30
2022-10-03T02:58:54.611Z,12.20
2022-10-03T03:01:53.029Z,12.20
2022-10-03T03:04:56.657Z,12.20
2022-10-03T03:08:00.861Z,12.20
2022-10-03T03:11:01.273Z,12.10
2022-10-03T03:13:59.195Z,12.10
2022-10-03T03:16:36.581Z,12.10
2022-10-03T03:19:37.102Z,12.10
2022-10-03T03:22:11.674Z,12.00
2022-10-03T03:24:51.699Z,12.00
2022-10-03T03:27:38.483Z,12.00
2022-10-03T03:30:21.911Z,12.00
2022-10-03T03:33:05.149Z,12.00
2022-10-03T03:35:36.774Z,12.00
2022-10-03T03:38:08.386Z,12.00
2022-10-03T03:40:42.784Z,12.00
2022-10-03T03:43:34.492Z,11.90
2022-10-03T03:46:33.091Z,11.90
2022-10-03T03:49:10.897Z,11.90
2022-10-03T03:51:54.735Z,11.90
2022-10-03T03:54:55.256Z,11.90
2022-10-03T03:57:47.979Z,11.90
2022-10-03T04:00:22.060Z,11.90
2022-10-03T04:02:59.646Z,11.90
2022-10-03T04:05:57.148Z,11.90
2022-10-03T04:08:51.793Z,11.90
2022-10-03T04:11:45.542Z,11.90
2022-10-03T04:14:17.163Z,11.90
2022-10-03T04:17:16.572Z,11.90
2022-10-03T04:20:06.493Z,12.00
2022-10-03T04:22:54.704Z,12.00
2022-10-03T04:25:54.810Z,12.00
2022-10-03T04:28:26.774Z,12.00
2022-10-03T04:31:26.076Z,12.10
2022-10-03T04:34:03.990Z,12.10
2022-10-03T04:36:56.101Z,12.10
2022-10-03T04:39:49.915Z,12.10
2022-10-03T04:42:48.354Z,12.20
2022-10-03T04:45:22.365Z,12.10
2022-10-03T04:48:16.018Z,12.20
2022-10-03T04:50:47.615Z,12.20
2022-10-03T04:53:24.663Z,12.20
2022-10-03T04:55:56.270Z,12.20
2022-10-03T04:58:30.560Z,12.20
2022-10-03T05:01:20.262Z,12.10
2022-10-03T05:03:57.949Z,12.20
2022-10-03T05:06:48.614Z,12.20
2022-10-03T05:09:49.427Z,12.10
2022-10-03T05:12:53.791Z,12.10
2022-10-03T05:15:31.689Z,12.10
2022-10-03T05:18:03.309Z,12.10
2022-10-03T05:20:47.103Z,12.10
2022-10-03T05:23:34.997Z,12.10
2022-10-03T05:26:39.114Z,12.10
2022-10-03T05:28:50.151Z,12.10
2022-10-03T05:31:36.741Z,12.20
2022-10-03T05:34:11.244Z,12.20
2022-10-03T05:36:59.201Z,12.20
2022-10-03T05:39:36.106Z,12.30
2022-10-03T05:42:27.404Z,12.40
2022-10-03T05:45:15.319Z,12.30
2022-10-03T05:47:52.934Z,12.30
2022-10-03T05:50:42.701Z,12.30
2022-10-03T05:53:42.549Z,12.30
2022-10-03T05:56:16.721Z,12.30
2022-10-03T05:59:12.169Z,12.30
2022-10-03T06:01:52.855Z,12.30
2022-10-03T06:04:27.484Z,12.20
2022-10-03T06:07:27.137Z,12.20
2022-10-03T06:10:00.427Z,12.30
2022-10-03T06:13:16.973Z,12.30
2022-10-03T06:15:53.086Z,12.30
2022-10-03T06:18:58.094Z,12.30
2022-10-03T06:21:32.315Z,12.30
2022-10-03T06:24:21.731Z,12.30
2022-10-03T06:27:21.861Z,12.30
2022-10-03T06:30:18.967Z,12.40
2022-10-03T06:32:51.171Z,12.40
2022-10-03T06:35:39.533Z,12.50
2022-10-03T06:38:23.287Z,12.60
2022-10-03T06:41:17.405Z,12.60
2022-10-03T06:44:03.988Z,12.60
2022-10-03T06:46:51.969Z,12.60
2022-10-03T06:49:58.953Z,12.70
2022-10-03T06:52:52.814Z,12.80
2022-10-03T06:55:53.152Z,13.00
2022-10-03T06:58:51.045Z,13.20
2022-10-03T07:01:43.054Z,13.40
2022-10-03T07:04:35.017Z,13.50
2022-10-03T07:07:30.347Z,13.60
2022-10-03T07:10:19.726Z,13.80
2022-10-03T07:13:27.558Z,13.90
2022-10-03T07:16:26.992Z,13.90
2022-10-03T07:19:10.964Z,14.00
2022-10-03T07:22:18.611Z,14.10
2022-10-03T07:25:06.858Z,14.10
2022-10-03T07:28:05.061Z,14.20
2022-10-03T07:31:09.911Z,14.30
2022-10-03T07:34:17.413Z,14.20
2022-10-03T07:37:18.521Z,14.30
2022-10-03T07:39:55.676Z,14.20
2022-10-03T07:42:48.196Z,14.30
2022-10-03T07:45:39.858Z,14.30
2022-10-03T07:48:17.321Z,14.60
2022-10-03T07:51:12.852Z,15.00
2022-10-03T07:53:53.515Z,15.40
2022-10-03T07:57:02.110Z,15.70
2022-10-03T07:59:53.736Z,15.80
2022-10-03T08:02:28.198Z,15.90
2022-10-03T08:05:14.975Z,16.00
2022-10-03T08:08:16.101Z,16.00
2022-10-03T08:11:14.861Z,16.00
2022-10-03T08:14:03.087Z,15.90
2022-10-03T08:17:06.070Z,15.90
2022-10-03T08:20:25.371Z,16.00
2022-10-03T08:23:43.028Z,16.00
2022-10-03T08:26:34.025Z,16.10
2022-10-03T08:29:53.534Z,16.20
2022-10-03T08:35:35.305Z,16.40
2022-10-03T08:38:18.717Z,16.40
2022-10-03T08:41:26.502Z,16.40
2022-10-03T08:44:33.143Z,16.40
2022-10-03T08:47:17.060Z,16.30
2022-10-03T08:50:39.928Z,16.30
2022-10-03T08:53:22.825Z,16.30
2022-10-03T08:55:59.920Z,16.60
2022-10-03T08:58:43.624Z,17.00
2022-10-03T16:17:29.038Z,17.50
2022-10-03T16:20:00.667Z,21.90
2022-10-03T16:22:43.945Z,21.70
2022-10-03T16:25:18.223Z,21.60
2022-10-03T16:28:02.105Z,21.50
2022-10-03T16:30:45.706Z,21.50
2022-10-03T16:33:40.897Z,21.40
2022-10-03T16:36:12.027Z,21.40
2022-10-03T16:38:43.728Z,21.30
2022-10-03T16:41:16.062Z,21.30
2022-10-03T16:43:55.662Z,21.20
2022-10-03T16:46:26.497Z,21.20
2022-10-03T16:49:15.651Z,21.20
2022-10-03T16:51:47.291Z,21.10
2022-10-03T16:54:18.989Z,21.00
2022-10-03T16:56:51.113Z,20.90
2022-10-03T16:59:21.942Z,20.80
2022-10-03T17:01:53.928Z,20.60
2022-10-03T17:04:25.378Z,20.30
2022-10-03T17:06:57.213Z,20.10
2022-10-03T17:09:43.819Z,19.80
2022-10-03T17:12:18.130Z,19.50
2022-10-03T17:14:48.514Z,19.30
2022-10-03T17:17:51.530Z,19.00
2022-10-03T17:20:40.660Z,18.80
2022-10-03T17:23:29.018Z,18.60
2022-10-03T17:26:21.792Z,18.40
2022-10-03T17:29:05.355Z,18.30
2022-10-03T17:31:48.930Z,18.20
2022-10-03T17:34:23.506Z,18.10
2022-10-03T17:36:58.045Z,18.00
2022-10-03T17:39:38.541Z,17.90
2022-10-03T17:42:34.266Z,17.90
2022-10-03T17:45:22.171Z,17.80
2022-10-03T17:47:56.594Z,17.70
2022-10-03T17:50:31.334Z,17.70
2022-10-03T17:53:01.183Z,17.60
2022-10-03T17:55:32.774Z,17.60
2022-10-03T17:58:07.850Z,17.50
2022-10-03T18:01:01.276Z,17.50
2022-10-03T18:03:35.477Z,17.50
2022-10-03T18:06:25.151Z,17.40
2022-10-03T18:08:55.961Z,17.40
2022-10-03T18:11:29.776Z,17.40
2022-10-03T18:14:04.175Z,17.30
2022-10-03T18:16:35.185Z,17.20
2022-10-03T18:19:21.605Z,17.20
2022-10-03T18:22:07.279Z,17.00
2022-10-03T18:24:41.445Z,16.90
2022-10-03T18:27:30.567Z,16.70
2022-10-03T18:30:06.409Z,16.60
2022-10-03T18:32:38.032Z,16.60
2022-10-03T18:35:12.877Z,16.50
2022-10-03T18:37:47.306Z,16.50
2022-10-03T18:40:47.395Z,16.50
2022-10-03T18:43:27.834Z,16.50
2022-10-03T18:46:03.658Z,16.50
2022-10-03T18:49:15.005Z,16.50
2022-10-03T18:51:38.429Z,16.40
2022-10-03T18:54:24.993Z,16.40
2022-10-03T18:57:05.270Z,16.40
2022-10-03T18:59:36.884Z,16.40
2022-10-03T19:02:06.223Z,16.30
2022-10-03T19:04:43.958Z,16.30
2022-10-03T19:07:24.481Z,16.30
2022-10-03T19:10:18.405Z,16.20
2022-10-03T19:12:50.001Z,16.20
2022-10-03T19:15:43.630Z,16.10
2022-10-03T19:18:25.292Z,16.10
2022-10-03T19:20:59.809Z,16.10
2022-10-03T19:23:49.304Z,16.10
2022-10-03T19:26:26.708Z,16.20
2022-10-03T19:29:04.192Z,16.20
2022-10-03T19:31:49.058Z,16.20
2022-10-03T19:34:29.722Z,16.20
2022-10-03T19:37:00.483Z,16.10
2022-10-03T19:39:32.432Z,16.10
2022-10-03T19:42:23.482Z,16.10
2022-10-03T19:44:53.817Z,16.00
2022-10-03T19:47:30.375Z,16.00
2022-10-03T19:50:08.520Z,16.00
2022-10-03T19:52:42.152Z,16.00
2022-10-03T19:55:14.213Z,15.90
2022-10-03T19:57:45.862Z,15.90
2022-10-03T20:00:21.825Z,15.90
2022-10-03T20:02:59.112Z,15.90
2022-10-03T20:05:33.654Z,15.80
2022-10-03T20:08:05.421Z,15.80
2022-10-03T20:11:05.277Z,15.80
2022-10-03T20:13:34.064Z,15.70
2022-10-03T20:16:05.012Z,15.70
2022-10-03T20:18:35.342Z,15.70
2022-10-03T20:21:05.770Z,15.70
2022-10-03T20:23:35.869Z,15.60
2022-10-03T20:26:10.346Z,15.70
2022-10-03T20:28:52.609Z,15.60
2022-10-03T20:31:27.102Z,15.60
2022-10-03T20:33:57.633Z,15.60
2022-10-03T20:36:49.928Z,15.60
2022-10-03T20:39:41.261Z,15.50
2022-10-03T20:42:18.743Z,15.50
2022-10-03T20:44:56.555Z,15.40
2022-10-03T20:47:55.139Z,15.30
2022-10-03T20:50:44.575Z,15.30
2022-10-03T20:53:22.409Z,15.10
2022-10-03T20:56:14.869Z,15.00
2022-10-03T20:58:51.081Z,15.00
2022-10-03T21:01:28.343Z,14.90
2022-10-03T21:04:33.118Z,14.90
2022-10-03T21:07:04.772Z,14.90
2022-10-03T21:09:47.165Z,14.80
2022-10-03T21:12:27.519Z,14.80
2022-10-03T21:15:07.662Z,14.70
2022-10-03T21:17:37.441Z,14.70
2022-10-03T21:20:11.634Z,14.70
2022-10-03T21:22:42.074Z,14.70
2022-10-03T21:25:13.699Z,14.70
2022-10-03T21:27:45.406Z,14.70
2022-10-03T21:30:19.942Z,14.70
2022-10-03T21:32:57.201Z,14.70
2022-10-03T21:35:34.021Z,14.70
2022-10-03T21:38:29.058Z,14.60
2022-10-03T21:41:18.488Z,14.60
2022-10-03T21:44:04.865Z,14.60
2022-10-03T21:46:45.295Z,14.50
2022-10-03T21:49:34.572Z,14.40
2022-10-03T21:52:29.510Z,14.40
2022-10-03T21:55:16.134Z,14.40
2022-10-03T21:58:12.396Z,14.30
2022-10-03T22:01:03.649Z,14.30
2022-10-03T22:03:43.843Z,14.30
2022-10-03T22:06:36.110Z,14.20
2022-10-03T22:09:07.732Z,14.20
2022-10-03T22:11:41.303Z,14.20
2022-10-03T22:14:22.374Z,14.20
2022-10-03T22:17:03.984Z,14.30
2022-10-03T22:19:38.112Z,14.30
2022-10-03T22:22:33.492Z,14.30
2022-10-03T22:25:26.671Z,14.30
2022-10-03T22:28:08.361Z,14.30
2022-10-03T22:30:40.008Z,14.30
2022-10-03T22:33:29.519Z,14.30
2022-10-03T22:36:03.740Z,14.20
2022-10-03T22:38:36.282Z,14.20
2022-10-03T22:41:07.935Z,14.20
2022-10-03T22:43:39.013Z,14.20
2022-10-03T22:46:10.245Z,14.20
2022-10-03T22:48:44.680Z,14.10
2022-10-03T22:51:15.952Z,14.10
2022-10-03T22:53:50.663Z,14.10
2022-10-03T22:56:40.333Z,14.10
2022-10-03T22:59:29.732Z,14.10
2022-10-03T23:02:01.219Z,14.00
2022-10-03T23:04:35.586Z,14.00
2022-10-03T23:07:10.066Z,13.90
2022-10-03T23:10:11.605Z,13.90
2022-10-03T23:13:17.424Z,13.80
2022-10-03T23:15:49.298Z,13.80
2022-10-03T23:18:52.853Z,13.70
2022-10-03T23:21:21.555Z,13.60
2022-10-03T23:23:55.986Z,13.50
2022-10-03T23:26:53.723Z,13.50
2022-10-03T23:29:22.715Z,13.40
2022-10-03T23:32:06.359Z,13.40
2022-10-03T23:34:41.481Z,13.40
2022-10-03T23:37:16.315Z,13.40
2022-10-03T23:40:02.980Z,13.30
2022-10-03T23:42:40.319Z,13.30
2022-10-03T23:45:11.929Z,13.40
2022-10-03T23:47:59.598Z,13.40
2022-10-03T23:50:46.519Z,13.40
2022-10-03T23:53:21.143Z,13.40
2022-10-03T23:55:49.856Z,13.40
2022-10-03T23:58:21.459Z,13.40
